Time;durP1;ratioP1;P1;durP2;ratioP2;P2;SDS_P1;SDS_P2;PMS_P1;PMS_P2;Temp;Humidity;BMP_temperature;BMP_pressure;BME280_temperature;BME280_humidity;BME280_pressure;Samples;Min_cycle;Max_cycle;Signal;HPM_P1;HPM_P2
2023/01/31 00:02:20;;;;;;;9.15;2.95;;;;;;;;;;4937561;28;92810;-78
2023/01/31 00:04:48;;;;;;;10.95;3.40;;;;;;;;;;4948410;28;92461;-79
2023/01/31 00:07:14;;;;;;;10.45;3.33;;;;;;;;;;4947668;28;92794;-79
2023/01/31 00:09:40;;;;;;;10.80;3.60;;;;;;;;;;4946189;28;92837;-79
2023/01/31 00:12:07;;;;;;;11.38;3.65;;;;;;;;;;4944733;28;96275;-78
2023/01/31 00:14:33;;;;;;;11.00;4.15;;;;;;;;;;4946664;28;92469;-79
2023/01/31 00:17:00;;;;;;;10.60;4.18;;;;;;;;;;4946786;28;94967;-79
2023/01/31 00:19:27;;;;;;;11.05;3.63;;;;;;;;;;4947567;28;93923;-80
2023/01/31 00:21:53;;;;;;;12.85;3.83;;;;;;;;;;4947481;28;92729;-80
2023/01/31 00:24:20;;;;;;;12.68;4.03;;;;;;;;;;4940071;28;93090;-80
2023/01/31 00:26:47;;;;;;;11.65;4.47;;;;;;;;;;4947654;28;93064;-80
2023/01/31 00:29:14;;;;;;;11.77;3.92;;;;;;;;;;4946295;28;94433;-80
2023/01/31 00:31:43;;;;;;;11.32;3.90;;;;;;;;;;4931730;28;92429;-79
2023/01/31 00:34:10;;;;;;;12.73;3.90;;;;;;;;;;4926760;28;91920;-81
2023/01/31 00:36:36;;;;;;;10.00;3.53;;;;;;;;;;4927882;28;93206;-81
2023/01/31 00:39:07;;;;;;;11.00;4.03;;;;;;;;;;4924743;28;93370;-81
2023/01/31 00:41:34;;;;;;;25.75;3.97;;;;;;;;;;4926405;28;95336;-81
2023/01/31 00:44:03;;;;;;;11.07;3.70;;;;;;;;;;4937635;28;95520;-80
2023/01/31 00:46:30;;;;;;;12.93;3.88;;;;;;;;;;4926227;28;92624;-81
2023/01/31 00:48:56;;;;;;;10.20;3.20;;;;;;;;;;4931405;28;94796;-80
2023/01/31 00:51:24;;;;;;;10.60;3.35;;;;;;;;;;4909922;28;95568;-80
2023/01/31 00:53:52;;;;;;;8.38;3.10;;;;;;;;;;4916035;28;92546;-80
2023/01/31 00:56:24;;;;;;;12.40;3.28;;;;;;;;;;4927584;28;92694;-79
2023/01/31 00:58:51;;;;;;;9.82;3.20;;;;;;;;;;4928378;28;91800;-81
2023/01/31 01:01:20;;;;;;;8.90;2.63;;;;;;;;;;4926375;28;93039;-79
2023/01/31 01:03:48;;;;;;;8.38;3.03;;;;;;;;;;4928648;28;92797;-81
2023/01/31 01:06:15;;;;;;;7.35;2.80;;;;;;;;;;4926791;28;94944;-80
2023/01/31 01:08:42;;;;;;;8.02;2.92;;;;;;;;;;4920636;28;95333;-79
2023/01/31 01:11:11;;;;;;;9.77;3.25;;;;;;;;;;4907337;28;96322;-80
2023/01/31 01:13:38;;;;;;;7.97;2.78;;;;;;;;;;4919936;28;92600;-80
2023/01/31 01:16:05;;;;;;;8.45;3.05;;;;;;;;;;4942051;28;93135;-80
2023/01/31 01:18:34;;;;;;;8.57;2.58;;;;;;;;;;4945255;28;92943;-80
2023/01/31 01:21:05;;;;;;;12.75;2.90;;;;;;;;;;4950168;28;92711;-79
2023/01/31 01:23:31;;;;;;;13.07;3.10;;;;;;;;;;4945207;28;95898;-80
2023/01/31 01:25:58;;;;;;;13.07;2.95;;;;;;;;;;4926890;28;94369;-80
2023/01/31 01:28:26;;;;;;;19.42;3.30;;;;;;;;;;4951604;28;94634;-80
2023/01/31 01:30:55;;;;;;;11.45;2.72;;;;;;;;;;4938235;28;96568;-81
2023/01/31 01:33:21;;;;;;;12.90;2.75;;;;;;;;;;4929437;28;92669;-79
2023/01/31 01:35:48;;;;;;;9.80;2.70;;;;;;;;;;4930554;28;92824;-80
2023/01/31 01:38:14;;;;;;;10.95;2.50;;;;;;;;;;4915786;28;92838;-81
2023/01/31 01:40:40;;;;;;;9.70;2.42;;;;;;;;;;4928106;28;92898;-80
2023/01/31 01:43:09;;;;;;;9.63;2.50;;;;;;;;;;4928303;28;96684;-80
2023/01/31 01:45:35;;;;;;;10.77;2.60;;;;;;;;;;4927987;28;96044;-80
2023/01/31 01:48:05;;;;;;;9.95;2.40;;;;;;;;;;4907961;28;91786;-80
2023/01/31 01:50:35;;;;;;;9.85;2.50;;;;;;;;;;4928241;28;95279;-80
2023/01/31 01:53:04;;;;;;;10.50;2.80;;;;;;;;;;4922881;28;92532;-79
2023/01/31 01:55:42;;;;;;;14.18;2.55;;;;;;;;;;4922582;28;95062;-81
2023/01/31 01:58:30;;;;;;;12.70;2.47;;;;;;;;;;4928154;28;93297;-79
2023/01/31 02:00:57;;;;;;;15.10;2.40;;;;;;;;;;4928071;28;93996;-80
2023/01/31 02:03:24;;;;;;;12.55;2.85;;;;;;;;;;4923908;28;95065;-80
2023/01/31 02:05:56;;;;;;;14.05;2.38;;;;;;;;;;4927452;28;95268;-80
2023/01/31 02:08:24;;;;;;;16.27;2.25;;;;;;;;;;4922380;28;92800;-80
2023/01/31 02:10:54;;;;;;;13.05;2.70;;;;;;;;;;4923240;28;95289;-81
2023/01/31 02:13:21;;;;;;;9.40;1.92;;;;;;;;;;4933535;28;92279;-80
2023/01/31 02:15:48;;;;;;;11.25;2.63;;;;;;;;;;4910476;28;94730;-80
2023/01/31 02:18:16;;;;;;;9.88;2.17;;;;;;;;;;4927188;28;96001;-79
2023/01/31 02:20:49;;;;;;;12.52;2.42;;;;;;;;;;4926632;28;94904;-80
2023/01/31 02:23:15;;;;;;;9.30;2.15;;;;;;;;;;4926336;28;98544;-79
2023/01/31 02:25:41;;;;;;;7.32;1.95;;;;;;;;;;4916825;28;95950;-80
2023/01/31 02:28:11;;;;;;;7.32;1.98;;;;;;;;;;4910841;28;92757;-80
2023/01/31 02:30:45;;;;;;;11.55;2.08;;;;;;;;;;4911611;28;93158;-80
2023/01/31 02:33:14;;;;;;;11.65;1.85;;;;;;;;;;4924133;28;93061;-80
2023/01/31 02:35:43;;;;;;;8.95;2.10;;;;;;;;;;4919762;28;92631;-80
2023/01/31 02:38:27;;;;;;;9.35;2.10;;;;;;;;;;4929463;28;92062;-79
2023/01/31 02:41:16;;;;;;;9.93;2.20;;;;;;;;;;4929493;28;92376;-80
2023/01/31 02:46:46;;;;;;;10.18;2.30;;;;;;;;;;4934798;28;101952;-80
2023/01/31 02:49:35;;;;;;;10.50;2.10;;;;;;;;;;4934098;28;93307;-80
2023/01/31 02:52:15;;;;;;;7.82;1.83;;;;;;;;;;4926463;28;95812;-80
2023/01/31 02:57:48;;;;;;;10.05;2.05;;;;;;;;;;4930254;28;92508;-80
2023/01/31 03:00:16;;;;;;;8.93;1.98;;;;;;;;;;4929172;28;95917;-80
2023/01/31 03:02:43;;;;;;;8.57;1.80;;;;;;;;;;4946833;28;94218;-81
2023/01/31 03:05:12;;;;;;;8.13;1.83;;;;;;;;;;4947710;28;95011;-80
2023/01/31 03:07:40;;;;;;;9.70;2.10;;;;;;;;;;4946822;28;92728;-81
2023/01/31 03:10:07;;;;;;;9.88;1.80;;;;;;;;;;4935304;28;92581;-80
2023/01/31 03:12:43;;;;;;;10.18;2.13;;;;;;;;;;4945273;28;95272;-82
2023/01/31 03:15:18;;;;;;;9.63;1.83;;;;;;;;;;4947139;28;95879;-82
2023/01/31 03:17:51;;;;;;;7.72;1.83;;;;;;;;;;4946820;28;92954;-82
2023/01/31 03:20:30;;;;;;;7.90;1.73;;;;;;;;;;4948450;28;95804;-81
2023/01/31 03:22:58;;;;;;;8.75;2.00;;;;;;;;;;4947116;28;93637;-82
2023/01/31 03:25:27;;;;;;;6.95;1.77;;;;;;;;;;4938394;28;93302;-82
2023/01/31 03:27:59;;;;;;;7.97;1.98;;;;;;;;;;4946134;28;96300;-82
2023/01/31 03:30:31;;;;;;;8.18;1.90;;;;;;;;;;4941918;28;93644;-82
2023/01/31 03:33:02;;;;;;;8.90;1.98;;;;;;;;;;4935660;28;94103;-82
2023/01/31 03:35:30;;;;;;;8.60;1.92;;;;;;;;;;4947097;28;95387;-81
2023/01/31 03:38:10;;;;;;;9.27;1.95;;;;;;;;;;4945189;28;95200;-80
2023/01/31 03:40:40;;;;;;;8.27;1.75;;;;;;;;;;4934039;28;93716;-82
2023/01/31 03:43:17;;;;;;;10.68;2.00;;;;;;;;;;4951998;28;93064;-81
2023/01/31 03:45:47;;;;;;;7.78;2.10;;;;;;;;;;4947971;28;95265;-82
2023/01/31 03:48:17;;;;;;;8.27;2.00;;;;;;;;;;4948920;28;93255;-82
2023/01/31 03:51:04;;;;;;;8.23;2.00;;;;;;;;;;4933300;28;92687;-82
2023/01/31 03:53:48;;;;;;;9.60;2.00;;;;;;;;;;4919180;28;95560;-82
2023/01/31 03:56:17;;;;;;;9.52;1.90;;;;;;;;;;4909540;28;94954;-82
2023/01/31 03:58:46;;;;;;;9.02;1.80;;;;;;;;;;4923081;28;92968;-82
2023/01/31 04:01:13;;;;;;;8.43;2.00;;;;;;;;;;4897224;28;95506;-82
2023/01/31 04:03:42;;;;;;;8.25;2.15;;;;;;;;;;4920175;28;97931;-82
2023/01/31 04:06:09;;;;;;;8.70;2.08;;;;;;;;;;4929029;28;92851;-82
2023/01/31 04:08:36;;;;;;;8.10;2.05;;;;;;;;;;4924107;28;95706;-82
2023/01/31 04:11:08;;;;;;;8.75;2.22;;;;;;;;;;4919772;28;93065;-83
2023/01/31 04:13:35;;;;;;;8.60;2.42;;;;;;;;;;4947887;28;92902;-82
2023/01/31 04:16:02;;;;;;;5.30;1.75;;;;;;;;;;4945507;28;93393;-82
2023/01/31 04:18:28;;;;;;;8.40;1.90;;;;;;;;;;4945629;28;92514;-83
2023/01/31 04:20:55;;;;;;;8.32;1.92;;;;;;;;;;4948043;28;92778;-81
2023/01/31 04:23:23;;;;;;;7.60;1.83;;;;;;;;;;4942028;28;93180;-81
2023/01/31 04:25:51;;;;;;;7.85;2.00;;;;;;;;;;4945551;28;92449;-81
2023/01/31 04:28:17;;;;;;;9.90;2.35;;;;;;;;;;4947921;28;94969;-80
2023/01/31 04:30:44;;;;;;;7.70;1.83;;;;;;;;;;4945634;28;92938;-80
2023/01/31 04:33:10;;;;;;;8.43;2.10;;;;;;;;;;4945555;28;95840;-80
2023/01/31 04:35:40;;;;;;;9.25;2.25;;;;;;;;;;4945511;28;94213;-81
2023/01/31 04:38:06;;;;;;;9.25;1.88;;;;;;;;;;4942575;28;92593;-80
2023/01/31 04:40:33;;;;;;;7.60;1.88;;;;;;;;;;4942283;28;93327;-80
2023/01/31 04:42:59;;;;;;;8.77;2.20;;;;;;;;;;4945831;28;94104;-81
2023/01/31 04:45:26;;;;;;;8.73;2.38;;;;;;;;;;4947679;28;91753;-80
2023/01/31 04:47:52;;;;;;;7.75;2.10;;;;;;;;;;4949653;28;92555;-81
2023/01/31 04:50:18;;;;;;;8.77;2.05;;;;;;;;;;4937849;28;93838;-80
2023/01/31 04:52:48;;;;;;;7.72;2.28;;;;;;;;;;4918823;28;95411;-80
2023/01/31 04:55:14;;;;;;;7.75;1.92;;;;;;;;;;4918602;28;93019;-80
2023/01/31 04:57:41;;;;;;;7.30;2.00;;;;;;;;;;4931105;28;92453;-80
2023/01/31 05:00:07;;;;;;;10.35;2.42;;;;;;;;;;4945511;28;94663;-80
2023/01/31 05:02:34;;;;;;;10.55;2.60;;;;;;;;;;4945602;28;93201;-80
2023/01/31 05:05:01;;;;;;;10.43;2.00;;;;;;;;;;4932400;28;92544;-81
2023/01/31 05:07:28;;;;;;;11.10;2.72;;;;;;;;;;4940323;28;93635;-81
2023/01/31 05:09:54;;;;;;;8.15;2.10;;;;;;;;;;4947749;28;92552;-80
2023/01/31 05:12:21;;;;;;;9.75;2.28;;;;;;;;;;4943132;28;93304;-80
2023/01/31 05:14:47;;;;;;;10.68;2.33;;;;;;;;;;4948414;28;95114;-81
2023/01/31 05:17:13;;;;;;;7.32;2.00;;;;;;;;;;4948780;28;95066;-81
2023/01/31 05:19:42;;;;;;;8.93;2.30;;;;;;;;;;4944909;28;95592;-80
2023/01/31 05:22:08;;;;;;;10.07;2.20;;;;;;;;;;4949941;28;94040;-81
2023/01/31 05:24:35;;;;;;;10.38;2.80;;;;;;;;;;4950984;28;93093;-81
2023/01/31 05:27:02;;;;;;;10.20;2.47;;;;;;;;;;4940464;28;95668;-81
2023/01/31 05:29:30;;;;;;;9.25;2.17;;;;;;;;;;4951535;28;93721;-81
2023/01/31 05:31:59;;;;;;;9.43;2.30;;;;;;;;;;4946450;28;94582;-80
2023/01/31 05:34:27;;;;;;;9.50;2.63;;;;;;;;;;4929606;28;96667;-80
2023/01/31 05:36:54;;;;;;;8.82;2.00;;;;;;;;;;4937378;28;93787;-81
2023/01/31 05:39:21;;;;;;;8.00;2.30;;;;;;;;;;4937435;28;92779;-81
2023/01/31 05:41:47;;;;;;;9.93;2.35;;;;;;;;;;4918113;28;95442;-80
2023/01/31 05:44:15;;;;;;;9.70;2.38;;;;;;;;;;4930419;28;93035;-79
2023/01/31 05:46:41;;;;;;;10.68;2.53;;;;;;;;;;4929906;28;92963;-79
2023/01/31 05:49:08;;;;;;;11.13;2.53;;;;;;;;;;4919188;28;94531;-80
2023/01/31 05:51:34;;;;;;;9.45;2.55;;;;;;;;;;4928677;28;93163;-80
2023/01/31 05:54:00;;;;;;;8.75;2.40;;;;;;;;;;4932334;28;92668;-79
2023/01/31 05:56:27;;;;;;;12.38;2.72;;;;;;;;;;4918194;28;92567;-80
2023/01/31 05:58:53;;;;;;;8.40;2.20;;;;;;;;;;4928966;28;97316;-79
2023/01/31 06:01:21;;;;;;;8.38;2.25;;;;;;;;;;4928504;28;93351;-80
2023/01/31 06:03:48;;;;;;;10.63;2.30;;;;;;;;;;4928441;28;92457;-79
2023/01/31 06:06:15;;;;;;;9.05;2.30;;;;;;;;;;4928080;28;95484;-80
2023/01/31 06:08:41;;;;;;;9.30;2.70;;;;;;;;;;4929885;28;93237;-80
2023/01/31 06:11:09;;;;;;;9.57;2.50;;;;;;;;;;4929367;28;92582;-79
2023/01/31 06:13:37;;;;;;;9.60;2.83;;;;;;;;;;4913046;28;94519;-79
2023/01/31 06:16:04;;;;;;;8.52;2.65;;;;;;;;;;4929515;28;93467;-79
2023/01/31 06:18:30;;;;;;;8.38;2.15;;;;;;;;;;4930175;28;93571;-80
2023/01/31 06:20:57;;;;;;;9.82;2.40;;;;;;;;;;4928534;28;93074;-81
2023/01/31 06:23:24;;;;;;;10.40;2.55;;;;;;;;;;4931167;28;92132;-82
2023/01/31 06:25:51;;;;;;;14.38;2.58;;;;;;;;;;4925761;28;92935;-82
2023/01/31 06:28:17;;;;;;;12.80;2.63;;;;;;;;;;4920935;28;92528;-82
2023/01/31 06:30:44;;;;;;;10.25;2.33;;;;;;;;;;4931117;28;95211;-82
2023/01/31 06:33:11;;;;;;;10.38;2.38;;;;;;;;;;4933449;28;95450;-82
2023/01/31 06:35:38;;;;;;;10.85;2.53;;;;;;;;;;4933571;28;94796;-83
2023/01/31 06:38:05;;;;;;;10.10;2.83;;;;;;;;;;4934065;28;92505;-82
2023/01/31 06:40:31;;;;;;;11.80;2.45;;;;;;;;;;4915184;28;94075;-83
2023/01/31 06:42:58;;;;;;;9.48;2.50;;;;;;;;;;4929844;28;92554;-81
2023/01/31 06:45:24;;;;;;;9.90;2.50;;;;;;;;;;4930543;28;93207;-81
2023/01/31 06:47:51;;;;;;;10.35;2.20;;;;;;;;;;4943437;28;94238;-80
2023/01/31 06:50:17;;;;;;;10.07;2.17;;;;;;;;;;4929334;28;92886;-79
2023/01/31 06:52:44;;;;;;;10.38;2.58;;;;;;;;;;4928051;28;93277;-80
2023/01/31 06:55:11;;;;;;;10.45;2.28;;;;;;;;;;4926167;28;95933;-81
2023/01/31 06:57:47;;;;;;;8.52;1.85;;;;;;;;;;4912752;28;92623;-80
2023/01/31 07:00:14;;;;;;;9.10;2.25;;;;;;;;;;4942644;28;92737;-80
2023/01/31 07:02:40;;;;;;;8.95;2.20;;;;;;;;;;4929272;28;92465;-79
2023/01/31 07:05:07;;;;;;;8.07;2.22;;;;;;;;;;4927712;28;95372;-80
2023/01/31 07:07:33;;;;;;;9.77;2.30;;;;;;;;;;4928839;28;93614;-80
2023/01/31 07:10:00;;;;;;;13.10;2.38;;;;;;;;;;4929043;28;92877;-79
2023/01/31 07:12:26;;;;;;;10.65;1.90;;;;;;;;;;4930456;28;93449;-80
2023/01/31 07:14:53;;;;;;;9.45;2.50;;;;;;;;;;4930717;28;93754;-80
2023/01/31 07:17:20;;;;;;;9.02;2.22;;;;;;;;;;4930149;28;92489;-81
2023/01/31 07:19:46;;;;;;;9.57;2.38;;;;;;;;;;4930455;28;95106;-82
2023/01/31 07:22:12;;;;;;;9.85;2.25;;;;;;;;;;4925079;28;92973;-80
2023/01/31 07:24:39;;;;;;;14.07;2.42;;;;;;;;;;4928917;28;93811;-80
2023/01/31 07:27:05;;;;;;;8.85;2.25;;;;;;;;;;4918915;28;93087;-79
2023/01/31 07:29:32;;;;;;;9.00;2.42;;;;;;;;;;4929007;28;93021;-80
2023/01/31 07:31:59;;;;;;;9.38;2.35;;;;;;;;;;4936206;28;93689;-77
2023/01/31 07:34:25;;;;;;;10.50;2.35;;;;;;;;;;4928566;28;92568;-80
2023/01/31 07:36:51;;;;;;;11.55;2.42;;;;;;;;;;4926765;28;91836;-80
2023/01/31 07:39:18;;;;;;;16.17;2.88;;;;;;;;;;4919271;28;92534;-81
2023/01/31 07:41:44;;;;;;;10.32;2.13;;;;;;;;;;4937505;28;96488;-80
2023/01/31 07:44:12;;;;;;;16.63;2.38;;;;;;;;;;4926478;28;95360;-80
2023/01/31 07:46:39;;;;;;;14.50;2.72;;;;;;;;;;4933979;28;94324;-81
2023/01/31 07:49:05;;;;;;;10.65;2.30;;;;;;;;;;4946264;28;92691;-81
2023/01/31 07:51:32;;;;;;;11.45;2.72;;;;;;;;;;4950689;28;92719;-80
2023/01/31 07:53:58;;;;;;;9.05;2.08;;;;;;;;;;4945034;28;92798;-81
2023/01/31 07:56:25;;;;;;;8.32;2.30;;;;;;;;;;4923860;28;93096;-81
2023/01/31 07:58:51;;;;;;;13.68;2.95;;;;;;;;;;4938963;28;92914;-81
2023/01/31 08:04:07;;;;;;;10.65;2.42;;;;;;;;;;4935138;28;92571;-82
2023/01/31 08:06:48;;;;;;;10.48;2.00;;;;;;;;;;4940610;28;93192;-82
2023/01/31 08:09:15;;;;;;;9.68;2.38;;;;;;;;;;4946185;28;95099;-82
2023/01/31 08:11:41;;;;;;;11.00;2.20;;;;;;;;;;4949163;28;95376;-83
2023/01/31 08:14:08;;;;;;;7.65;2.00;;;;;;;;;;4949876;28;92981;-82
2023/01/31 08:16:35;;;;;;;12.13;2.70;;;;;;;;;;4950055;28;92530;-81
2023/01/31 08:19:02;;;;;;;7.28;2.15;;;;;;;;;;4945899;28;92782;-80
2023/01/31 08:21:29;;;;;;;9.85;2.33;;;;;;;;;;4940035;28;93085;-81
2023/01/31 08:23:56;;;;;;;18.08;2.40;;;;;;;;;;4927028;28;92588;-81
2023/01/31 08:26:22;;;;;;;9.85;2.40;;;;;;;;;;4939648;28;92693;-81
2023/01/31 08:28:50;;;;;;;9.15;2.13;;;;;;;;;;4946495;28;92561;-81
2023/01/31 08:31:16;;;;;;;;;;;;;;;;;;4934622;28;93767;-80
2023/01/31 08:33:43;;;;;;;10.02;2.28;;;;;;;;;;4945155;28;123117;-81
2023/01/31 08:36:10;;;;;;;10.05;2.28;;;;;;;;;;4947104;28;92493;-80
2023/01/31 08:38:37;;;;;;;8.25;2.47;;;;;;;;;;4936715;28;95707;-81
2023/01/31 08:41:03;;;;;;;6.82;2.08;;;;;;;;;;4925012;28;93267;-81
2023/01/31 08:43:31;;;;;;;12.90;2.30;;;;;;;;;;4928315;28;93157;-80
2023/01/31 08:46:11;;;;;;;7.43;1.98;;;;;;;;;;4931502;28;92785;-81
2023/01/31 08:48:37;;;;;;;7.57;1.85;;;;;;;;;;4927062;28;92585;-82
2023/01/31 08:51:05;;;;;;;10.02;2.20;;;;;;;;;;4922427;28;92076;-82
2023/01/31 08:53:31;;;;;;;6.93;1.83;;;;;;;;;;4926543;28;93508;-83
2023/01/31 08:55:58;;;;;;;;;;;;;;;;;;4935525;28;92646;-82
2023/01/31 08:58:25;;;;;;;6.93;2.05;;;;;;;;;;4935180;28;119298;-82
2023/01/31 09:00:51;;;;;;;7.50;2.00;;;;;;;;;;4940503;28;92582;-82
2023/01/31 09:03:18;;;;;;;9.75;2.03;;;;;;;;;;4937902;28;92945;-82
2023/01/31 09:05:44;;;;;;;8.32;2.05;;;;;;;;;;4931308;28;92899;-81
2023/01/31 09:08:11;;;;;;;6.65;1.80;;;;;;;;;;4933414;28;93145;-81
2023/01/31 09:10:37;;;;;;;6.18;1.92;;;;;;;;;;4938025;28;92951;-81
2023/01/31 09:13:04;;;;;;;;;;;;;;;;;;4942786;28;93092;-82
2023/01/31 09:15:31;;;;;;;7.35;1.85;;;;;;;;;;4936027;28;103196;-82
2023/01/31 09:17:57;;;;;;;8.98;2.03;;;;;;;;;;4934479;28;93408;-82
2023/01/31 09:20:24;;;;;;;7.25;2.13;;;;;;;;;;4930388;28;98885;-82
2023/01/31 09:22:50;;;;;;;7.63;2.00;;;;;;;;;;4938600;28;95301;-82
2023/01/31 09:25:17;;;;;;;7.93;1.90;;;;;;;;;;4947025;28;95942;-82
2023/01/31 09:27:43;;;;;;;8.35;2.10;;;;;;;;;;4946746;28;93294;-83
2023/01/31 09:30:10;;;;;;;7.75;2.08;;;;;;;;;;4944309;28;92681;-83
2023/01/31 09:32:37;;;;;;;7.57;2.10;;;;;;;;;;4946770;28;93310;-84
2023/01/31 09:35:04;;;;;;;9.07;2.08;;;;;;;;;;4948726;28;94627;-83
2023/01/31 09:37:30;;;;;;;7.82;1.88;;;;;;;;;;4946101;28;92936;-84
2023/01/31 09:39:57;;;;;;;6.32;1.90;;;;;;;;;;4947018;28;92239;-84
2023/01/31 09:42:35;;;;;;;7.07;2.00;;;;;;;;;;4944149;28;92568;-84
2023/01/31 09:45:04;;;;;;;10.25;2.20;;;;;;;;;;4945008;28;93274;-82
2023/01/31 09:47:36;;;;;;;6.32;2.00;;;;;;;;;;4942697;28;97034;-82
2023/01/31 09:50:18;;;;;;;7.28;2.03;;;;;;;;;;4934634;28;92795;-80
2023/01/31 09:52:45;;;;;;;8.13;2.15;;;;;;;;;;4950140;28;93063;-79
2023/01/31 09:55:19;;;;;;;6.32;2.00;;;;;;;;;;4947283;28;93070;-82
2023/01/31 09:57:53;;;;;;;6.07;1.90;;;;;;;;;;4948629;28;92837;-81
2023/01/31 10:00:19;;;;;;;;;;;;;;;;;;4946905;28;93357;-81
2023/01/31 10:03:05;;;;;;;7.75;2.00;;;;;;;;;;4944020;28;119274;-80
2023/01/31 10:05:37;;;;;;;6.82;1.98;;;;;;;;;;4950104;28;94347;-82
2023/01/31 10:08:09;;;;;;;6.10;1.92;;;;;;;;;;4950675;28;93380;-81
2023/01/31 10:10:38;;;;;;;6.40;1.90;;;;;;;;;;4948765;28;92686;-80
2023/01/31 10:13:34;;;;;;;7.53;2.17;;;;;;;;;;4943983;28;94936;-80
2023/01/31 10:16:03;;;;;;;7.25;2.08;;;;;;;;;;4942211;28;92404;-80
2023/01/31 10:18:35;;;;;;;8.00;1.95;;;;;;;;;;4940467;28;92926;-81
2023/01/31 10:21:20;;;;;;;6.70;1.90;;;;;;;;;;4947922;28;93026;-80
2023/01/31 10:23:53;;;;;;;8.13;2.17;;;;;;;;;;4946321;28;92591;-81
2023/01/31 10:26:19;;;;;;;;;;;;;;;;;;4947898;28;93389;-80
2023/01/31 10:28:49;;;;;;;7.13;1.85;;;;;;;;;;4949973;28;93122;-81
2023/01/31 10:31:15;;;;;;;6.82;1.90;;;;;;;;;;4941854;28;92221;-80
2023/01/31 10:33:42;;;;;;;6.82;1.80;;;;;;;;;;4932045;28;93146;-80
2023/01/31 10:36:27;;;;;;;6.60;1.90;;;;;;;;;;4925711;28;94015;-79
2023/01/31 10:38:57;;;;;;;6.00;1.80;;;;;;;;;;4933940;28;95411;-79
2023/01/31 10:41:33;;;;;;;6.63;1.80;;;;;;;;;;4933417;28;94392;-80
2023/01/31 10:44:02;;;;;;;6.60;1.90;;;;;;;;;;4941137;28;93996;-78
2023/01/31 10:46:29;;;;;;;7.35;2.10;;;;;;;;;;4945786;28;93849;-79
2023/01/31 10:48:56;;;;;;;7.90;2.00;;;;;;;;;;4939710;28;93524;-79
2023/01/31 10:51:28;;;;;;;7.65;2.03;;;;;;;;;;4938986;28;92922;-80
2023/01/31 10:54:06;;;;;;;6.80;2.13;;;;;;;;;;4945202;28;93394;-80
2023/01/31 10:56:34;;;;;;;7.20;2.10;;;;;;;;;;4945389;28;96663;-80
2023/01/31 10:59:06;;;;;;;7.60;2.03;;;;;;;;;;4946905;28;94061;-80
2023/01/31 11:01:33;;;;;;;7.80;1.88;;;;;;;;;;4947043;28;92695;-80
2023/01/31 11:04:00;;;;;;;4.68;1.60;;;;;;;;;;4941526;28;95322;-81
2023/01/31 11:06:27;;;;;;;7.30;1.83;;;;;;;;;;4947094;28;95661;-79
2023/01/31 11:08:57;;;;;;;7.03;1.90;;;;;;;;;;4945477;28;93087;-80
2023/01/31 11:11:25;;;;;;;6.82;1.88;;;;;;;;;;4941814;28;92626;-79
2023/01/31 11:13:54;;;;;;;6.97;2.05;;;;;;;;;;4943344;28;92881;-80
2023/01/31 11:16:21;;;;;;;6.78;1.80;;;;;;;;;;4941552;28;95473;-79
2023/01/31 11:18:49;;;;;;;8.07;2.08;;;;;;;;;;4947516;28;92864;-80
2023/01/31 11:21:29;;;;;;;6.43;1.80;;;;;;;;;;4941146;28;94300;-78
2023/01/31 11:24:04;;;;;;;6.13;1.80;;;;;;;;;;4947225;28;92918;-79
2023/01/31 11:26:32;;;;;;;7.80;1.92;;;;;;;;;;4937590;28;97012;-79
2023/01/31 11:28:59;;;;;;;8.20;2.03;;;;;;;;;;4940284;28;95469;-80
2023/01/31 11:31:33;;;;;;;6.85;1.80;;;;;;;;;;4940451;28;93161;-79
2023/01/31 11:34:03;;;;;;;6.13;1.80;;;;;;;;;;4926698;28;92960;-78
2023/01/31 11:36:31;;;;;;;6.13;1.80;;;;;;;;;;4928632;28;93114;-79
2023/01/31 11:38:58;;;;;;;7.75;2.05;;;;;;;;;;4921985;28;92929;-79
2023/01/31 11:41:39;;;;;;;7.97;1.98;;;;;;;;;;4928480;28;92748;-79
2023/01/31 11:44:26;;;;;;;7.30;1.90;;;;;;;;;;4930870;28;93772;-79
2023/01/31 11:46:58;;;;;;;8.15;2.03;;;;;;;;;;4924375;28;95860;-79
2023/01/31 11:49:28;;;;;;;8.38;2.10;;;;;;;;;;4928099;28;93128;-80
2023/01/31 11:51:55;;;;;;;7.75;1.85;;;;;;;;;;4928534;28;92574;-80
2023/01/31 11:54:24;;;;;;;7.88;1.75;;;;;;;;;;4924428;28;94978;-80
2023/01/31 11:56:51;;;;;;;5.35;1.67;;;;;;;;;;4919175;28;93345;-80
2023/01/31 11:59:22;;;;;;;7.32;1.50;;;;;;;;;;4927882;28;92475;-80
2023/01/31 12:01:51;;;;;;;7.65;1.70;;;;;;;;;;4933867;28;93132;-80
2023/01/31 12:04:22;;;;;;;6.43;1.70;;;;;;;;;;4942570;28;92678;-80
2023/01/31 12:07:00;;;;;;;5.60;1.58;;;;;;;;;;4947966;28;92525;-80
2023/01/31 12:09:28;;;;;;;6.68;1.63;;;;;;;;;;4944926;28;93660;-81
2023/01/31 12:11:59;;;;;;;5.65;1.80;;;;;;;;;;4947439;28;91673;-81
2023/01/31 12:14:35;;;;;;;7.07;1.80;;;;;;;;;;4946404;28;97197;-81
2023/01/31 12:17:02;;;;;;;7.00;1.70;;;;;;;;;;4942442;28;94567;-81
2023/01/31 12:20:01;;;;;;;6.03;1.70;;;;;;;;;;4942474;28;95168;-81
2023/01/31 12:22:34;;;;;;;5.78;1.75;;;;;;;;;;4927287;28;100205;-80
2023/01/31 12:25:16;;;;;;;5.13;1.60;;;;;;;;;;4943116;28;93664;-80
2023/01/31 12:27:54;;;;;;;7.07;1.80;;;;;;;;;;4943423;28;92892;-81
2023/01/31 12:30:20;;;;;;;6.07;1.63;;;;;;;;;;4934402;28;93876;-81
2023/01/31 12:32:50;;;;;;;7.18;1.90;;;;;;;;;;4928583;28;92630;-82
2023/01/31 12:35:34;;;;;;;7.40;1.75;;;;;;;;;;4938910;28;93699;-81
2023/01/31 12:38:26;;;;;;;6.80;1.60;;;;;;;;;;4940075;28;92112;-79
2023/01/31 12:41:01;;;;;;;6.72;1.83;;;;;;;;;;4915214;28;93037;-80
2023/01/31 12:43:47;;;;;;;6.57;1.75;;;;;;;;;;4925734;28;93796;-79
2023/01/31 12:46:23;;;;;;;8.57;1.70;;;;;;;;;;4919954;28;96476;-78
2023/01/31 12:49:08;;;;;;;6.75;1.73;;;;;;;;;;4930920;28;92935;-79
2023/01/31 12:51:44;;;;;;;5.75;1.45;;;;;;;;;;4948101;28;93024;-81
2023/01/31 12:54:19;;;;;;;6.70;1.77;;;;;;;;;;4948761;28;94198;-79
2023/01/31 12:56:49;;;;;;;7.22;1.90;;;;;;;;;;4946837;28;93292;-81
2023/01/31 12:59:41;;;;;;;6.22;1.58;;;;;;;;;;4947600;28;93408;-82
2023/01/31 13:02:26;;;;;;;6.20;1.70;;;;;;;;;;4944756;28;93060;-81
2023/01/31 13:04:53;;;;;;;;;;;;;;;;;;4941452;28;92615;-81
2023/01/31 13:07:23;;;;;;;5.88;1.60;;;;;;;;;;4943156;28;119992;-81
2023/01/31 13:09:51;;;;;;;7.35;1.75;;;;;;;;;;4946296;28;93076;-81
2023/01/31 13:12:20;;;;;;;5.53;1.65;;;;;;;;;;4938102;28;94863;-81
2023/01/31 13:14:49;;;;;;;6.32;1.67;;;;;;;;;;4944253;28;93096;-82
2023/01/31 13:17:22;;;;;;;11.57;1.85;;;;;;;;;;4944358;28;94090;-82
2023/01/31 13:20:01;;;;;;;9.02;1.75;;;;;;;;;;4950199;28;94180;-82
2023/01/31 13:22:30;;;;;;;8.27;1.80;;;;;;;;;;4949043;28;92927;-82
2023/01/31 13:25:02;;;;;;;7.88;1.55;;;;;;;;;;4949444;28;93882;-81
2023/01/31 13:27:33;;;;;;;9.20;1.67;;;;;;;;;;4945715;28;93361;-81
2023/01/31 13:30:07;;;;;;;7.35;1.60;;;;;;;;;;4943298;28;92883;-80
2023/01/31 13:32:37;;;;;;;5.80;1.60;;;;;;;;;;4946407;28;92988;-81
2023/01/31 13:35:13;;;;;;;10.30;1.95;;;;;;;;;;4945928;28;93227;-81
2023/01/31 13:37:41;;;;;;;9.10;1.80;;;;;;;;;;4949172;28;95213;-81
2023/01/31 13:40:21;;;;;;;6.32;1.63;;;;;;;;;;4946829;28;94436;-82
2023/01/31 13:42:48;;;;;;;5.43;1.50;;;;;;;;;;4948306;28;92937;-81
2023/01/31 13:45:20;;;;;;;5.43;1.55;;;;;;;;;;4949394;28;94032;-80
2023/01/31 13:47:52;;;;;;;5.65;1.45;;;;;;;;;;4949381;28;93162;-81
2023/01/31 13:50:38;;;;;;;7.22;1.85;;;;;;;;;;4939224;28;92830;-81
2023/01/31 13:53:10;;;;;;;7.20;1.65;;;;;;;;;;4929841;28;92685;-79
2023/01/31 13:55:41;;;;;;;8.10;1.70;;;;;;;;;;4928218;28;93403;-80
2023/01/31 13:58:07;;;;;;;5.82;1.42;;;;;;;;;;4928296;28;92477;-79
2023/01/31 14:00:41;;;;;;;7.53;1.42;;;;;;;;;;4926707;28;94902;-80
2023/01/31 14:03:11;;;;;;;7.07;1.45;;;;;;;;;;4927504;28;95251;-79
2023/01/31 14:05:41;;;;;;;6.43;1.50;;;;;;;;;;4940977;28;97621;-79
2023/01/31 14:08:26;;;;;;;6.63;1.45;;;;;;;;;;4947442;28;93010;-80
2023/01/31 14:10:56;;;;;;;6.13;1.50;;;;;;;;;;4947988;28;92517;-78
2023/01/31 14:13:28;;;;;;;6.97;1.60;;;;;;;;;;4942635;28;92790;-77
2023/01/31 14:15:55;;;;;;;6.13;1.45;;;;;;;;;;4948777;28;92520;-79
2023/01/31 14:18:22;;;;;;;;;;;;;;;;;;4947659;28;92971;-78
2023/01/31 14:20:48;;;;;;;6.30;1.30;;;;;;;;;;4950403;28;107965;-78
2023/01/31 14:23:24;;;;;;;6.15;1.52;;;;;;;;;;4950139;28;94067;-78
2023/01/31 14:25:50;;;;;;;5.65;1.50;;;;;;;;;;4948532;28;92886;-78
2023/01/31 14:28:16;;;;;;;5.82;1.60;;;;;;;;;;4934340;28;96116;-78
2023/01/31 14:30:46;;;;;;;5.22;1.60;;;;;;;;;;4947308;28;92872;-78
2023/01/31 14:33:12;;;;;;;7.32;1.65;;;;;;;;;;4928882;28;93049;-78
2023/01/31 14:35:45;;;;;;;6.03;1.60;;;;;;;;;;4927344;28;97235;-78
2023/01/31 14:38:19;;;;;;;5.70;1.55;;;;;;;;;;4923511;28;92815;-78
2023/01/31 14:40:55;;;;;;;8.00;1.70;;;;;;;;;;4908482;28;92898;-77
2023/01/31 14:43:29;;;;;;;6.57;1.50;;;;;;;;;;4916070;28;93115;-78
2023/01/31 14:46:07;;;;;;;6.47;1.85;;;;;;;;;;4932941;28;92174;-77
2023/01/31 14:48:53;;;;;;;4.70;1.27;;;;;;;;;;4923920;28;98423;-78
2023/01/31 14:51:31;;;;;;;5.68;1.50;;;;;;;;;;4910056;28;93092;-77
2023/01/31 14:54:12;;;;;;;5.97;1.50;;;;;;;;;;4931447;28;95813;-78
2023/01/31 14:56:46;;;;;;;6.00;1.42;;;;;;;;;;4947190;28;98251;-78
2023/01/31 14:59:27;;;;;;;7.13;1.40;;;;;;;;;;4938488;28;92700;-78
2023/01/31 15:01:55;;;;;;;6.03;1.60;;;;;;;;;;4948126;28;92822;-77
2023/01/31 15:04:23;;;;;;;5.22;1.40;;;;;;;;;;4945243;28;93233;-77
2023/01/31 15:06:51;;;;;;;6.03;1.50;;;;;;;;;;4945698;28;92498;-78